Time;durP1;ratioP1;P1;durP2;ratioP2;P2;SDS_P1;SDS_P2;PMS_P1;PMS_P2;Temp;Humidity;BMP_temperature;BMP_pressure;BME280_temperature;BME280_humidity;BME280_pressure;Samples;Min_cycle;Max_cycle;Signal;HPM_P1;HPM_P2
2022/04/29 00:01:09;;;;;;;9.37;7.27;;;;;;;;;;5032138;28;20200;-70
2022/04/29 00:03:38;;;;;;;9.53;7.10;;;;;;;;;;5031018;28;20287;-71
2022/04/29 00:06:06;;;;;;;13.87;7.03;;;;;;;;;;5031908;28;20225;-72
2022/04/29 00:08:35;;;;;;;8.40;6.80;;;;;;;;;;5032355;28;20228;-71
2022/04/29 00:11:06;;;;;;;7.83;6.03;;;;;;;;;;5031849;28;20686;-71
2022/04/29 00:13:36;;;;;;;11.60;7.40;;;;;;;;;;5029538;28;20625;-72
2022/04/29 00:16:05;;;;;;;10.73;6.70;;;;;;;;;;5017384;28;20207;-72
2022/04/29 00:18:33;;;;;;;8.60;6.77;;;;;;;;;;5032291;28;20219;-72
2022/04/29 00:21:02;;;;;;;11.80;6.93;;;;;;;;;;5020206;28;20613;-71
2022/04/29 00:23:30;;;;;;;13.23;7.60;;;;;;;;;;5033685;28;20556;-72
2022/04/29 00:25:59;;;;;;;11.23;7.83;;;;;;;;;;5034840;28;20616;-71
2022/04/29 00:28:27;;;;;;;11.57;7.03;;;;;;;;;;5026066;28;20227;-72
2022/04/29 00:30:57;;;;;;;12.90;7.90;;;;;;;;;;5023977;28;20211;-71
2022/04/29 00:33:27;;;;;;;12.23;6.97;;;;;;;;;;5034660;28;20209;-72
2022/04/29 00:35:55;;;;;;;9.67;6.90;;;;;;;;;;5020782;28;20268;-72
2022/04/29 00:38:23;;;;;;;14.37;8.43;;;;;;;;;;5031785;28;20219;-71
2022/04/29 00:40:52;;;;;;;11.23;7.77;;;;;;;;;;5034498;28;20541;-71
2022/04/29 00:43:20;;;;;;;18.53;8.40;;;;;;;;;;5031321;28;20594;-70
2022/04/29 00:45:49;;;;;;;11.87;8.10;;;;;;;;;;5029223;28;20559;-70
2022/04/29 00:48:18;;;;;;;13.97;9.10;;;;;;;;;;5022617;28;20246;-71
2022/04/29 00:50:47;;;;;;;19.00;8.17;;;;;;;;;;5035444;28;20207;-71
2022/04/29 00:53:17;;;;;;;13.03;8.73;;;;;;;;;;5035525;28;20207;-72
2022/04/29 00:55:46;;;;;;;14.57;8.13;;;;;;;;;;5035546;28;20246;-71
2022/04/29 00:58:17;;;;;;;14.87;8.30;;;;;;;;;;5031748;28;20287;-71
2022/04/29 01:00:48;;;;;;;11.33;7.57;;;;;;;;;;5016379;28;20254;-70
2022/04/29 01:03:19;;;;;;;11.60;8.27;;;;;;;;;;5015818;28;20702;-73
2022/04/29 01:05:50;;;;;;;12.73;7.67;;;;;;;;;;5031109;28;20211;-72
2022/04/29 01:08:18;;;;;;;15.17;8.03;;;;;;;;;;5034048;28;20227;-72
2022/04/29 01:10:47;;;;;;;11.77;7.83;;;;;;;;;;5033906;28;20215;-73
2022/04/29 01:13:15;;;;;;;11.50;8.30;;;;;;;;;;5034345;28;20266;-71
2022/04/29 01:15:44;;;;;;;12.33;8.33;;;;;;;;;;5034980;28;20253;-72
2022/04/29 01:18:15;;;;;;;16.23;9.03;;;;;;;;;;5032946;28;20665;-71
2022/04/29 01:20:45;;;;;;;14.93;8.87;;;;;;;;;;5034686;28;20211;-71
2022/04/29 01:23:15;;;;;;;15.63;9.23;;;;;;;;;;5034860;28;20215;-70
2022/04/29 01:25:43;;;;;;;12.00;8.60;;;;;;;;;;5034917;28;20219;-71
2022/04/29 01:28:11;;;;;;;13.20;8.60;;;;;;;;;;4684144;28;9999780;-70
2022/04/29 01:30:41;;;;;;;13.77;9.20;;;;;;;;;;5032220;28;20258;-72
2022/04/29 01:33:11;;;;;;;18.57;9.77;;;;;;;;;;5032389;28;20200;-72
2022/04/29 01:35:40;;;;;;;12.40;9.07;;;;;;;;;;5032349;28;20265;-71
2022/04/29 01:38:08;;;;;;;14.80;8.23;;;;;;;;;;5032660;28;20275;-72
2022/04/29 01:40:38;;;;;;;9.23;7.87;;;;;;;;;;5032672;28;20207;-73
2022/04/29 01:43:06;;;;;;;13.27;8.87;;;;;;;;;;5031792;28;20292;-72
2022/04/29 01:45:35;;;;;;;17.03;8.27;;;;;;;;;;5019033;28;20216;-73
2022/04/29 01:48:03;;;;;;;12.73;8.67;;;;;;;;;;5022456;28;20232;-71
2022/04/29 01:50:31;;;;;;;10.90;8.53;;;;;;;;;;5031363;28;20234;-72
2022/04/29 01:53:00;;;;;;;13.37;8.80;;;;;;;;;;5032172;28;20215;-72
2022/04/29 01:55:28;;;;;;;14.53;9.27;;;;;;;;;;5031978;28;20203;-71
2022/04/29 01:57:58;;;;;;;12.43;9.00;;;;;;;;;;5031279;28;20234;-74
2022/04/29 02:00:26;;;;;;;13.90;9.20;;;;;;;;;;5031586;28;20199;-72
2022/04/29 02:02:55;;;;;;;11.87;8.37;;;;;;;;;;5029534;28;20211;-73
2022/04/29 02:05:24;;;;;;;14.77;9.13;;;;;;;;;;5031603;28;20237;-72
2022/04/29 02:07:53;;;;;;;13.13;8.93;;;;;;;;;;5030824;28;20282;-74
2022/04/29 02:10:21;;;;;;;14.73;9.40;;;;;;;;;;5024815;28;20223;-72
2022/04/29 02:12:50;;;;;;;15.77;9.53;;;;;;;;;;5031424;28;20214;-71
2022/04/29 02:15:20;;;;;;;14.53;9.67;;;;;;;;;;5030593;28;20215;-72
2022/04/29 02:17:48;;;;;;;15.00;10.40;;;;;;;;;;5031068;28;20285;-72
2022/04/29 02:20:17;;;;;;;19.10;10.67;;;;;;;;;;5031540;28;20219;-71
2022/04/29 02:22:46;;;;;;;18.27;10.70;;;;;;;;;;5028968;28;20206;-72
2022/04/29 02:25:14;;;;;;;16.27;9.77;;;;;;;;;;5027443;28;20686;-71
2022/04/29 02:27:43;;;;;;;14.80;9.47;;;;;;;;;;5015482;28;20223;-72
2022/04/29 02:30:13;;;;;;;15.37;9.30;;;;;;;;;;5032158;28;20333;-71
2022/04/29 02:32:44;;;;;;;12.73;8.90;;;;;;;;;;5031629;28;20210;-73
2022/04/29 02:35:14;;;;;;;12.70;9.17;;;;;;;;;;5030588;28;20583;-71
2022/04/29 02:37:43;;;;;;;17.00;9.60;;;;;;;;;;5030356;28;20230;-72
2022/04/29 02:40:12;;;;;;;11.47;9.00;;;;;;;;;;5031586;28;20294;-72
2022/04/29 02:42:40;;;;;;;13.77;8.63;;;;;;;;;;5029640;28;20580;-72
2022/04/29 02:45:09;;;;;;;13.43;9.60;;;;;;;;;;5030975;28;20211;-72
2022/04/29 02:47:37;;;;;;;12.70;9.33;;;;;;;;;;5030545;28;20231;-73
2022/04/29 02:50:08;;;;;;;17.13;9.37;;;;;;;;;;5030585;28;20234;-73
2022/04/29 02:52:37;;;;;;;17.83;9.47;;;;;;;;;;5030942;28;20252;-72
2022/04/29 02:55:05;;;;;;;17.67;9.67;;;;;;;;;;5031565;28;20272;-72
2022/04/29 02:57:34;;;;;;;15.23;9.13;;;;;;;;;;5029777;28;20226;-73
2022/04/29 03:00:02;;;;;;;12.73;8.97;;;;;;;;;;5030612;28;20261;-71
2022/04/29 03:02:31;;;;;;;13.10;8.97;;;;;;;;;;5028125;28;20211;-72
2022/04/29 03:04:59;;;;;;;12.80;8.70;;;;;;;;;;5031076;28;20208;-72
2022/04/29 03:07:29;;;;;;;14.70;8.70;;;;;;;;;;5030482;28;20226;-72
2022/04/29 03:09:57;;;;;;;13.73;9.20;;;;;;;;;;5031167;28;20245;-73
2022/04/29 03:12:26;;;;;;;17.20;9.40;;;;;;;;;;5029702;28;20210;-71
2022/04/29 03:15:15;;;;;;;13.97;9.30;;;;;;;;;;5029686;28;20654;-71
2022/04/29 03:20:29;;;;;;;19.80;8.77;;;;;;;;;;5028394;28;20209;-71
2022/04/29 03:22:58;;;;;;;14.00;9.27;;;;;;;;;;5030639;28;20275;-72
2022/04/29 03:25:27;;;;;;;11.70;9.67;;;;;;;;;;5028941;28;20268;-71
2022/04/29 03:27:55;;;;;;;17.13;9.77;;;;;;;;;;5018674;28;20222;-72
2022/04/29 03:30:24;;;;;;;16.57;9.67;;;;;;;;;;5050585;28;20225;-73
2022/04/29 03:32:53;;;;;;;14.30;9.50;;;;;;;;;;5032628;28;20203;-71
2022/04/29 03:35:21;;;;;;;13.93;9.90;;;;;;;;;;5027913;28;20284;-73
2022/04/29 03:37:51;;;;;;;14.30;10.60;;;;;;;;;;5030408;28;20234;-73
2022/04/29 03:40:21;;;;;;;17.13;10.67;;;;;;;;;;5029558;28;20204;-71
2022/04/29 03:42:50;;;;;;;18.27;10.80;;;;;;;;;;5029555;28;20203;-71
2022/04/29 03:45:19;;;;;;;20.17;10.67;;;;;;;;;;5030428;28;20235;-72
2022/04/29 03:47:47;;;;;;;16.93;11.20;;;;;;;;;;5029463;28;20226;-71
2022/04/29 03:50:16;;;;;;;17.30;11.50;;;;;;;;;;5029242;28;20234;-71
2022/04/29 03:52:48;;;;;;;17.57;10.67;;;;;;;;;;5023440;28;20206;-71
2022/04/29 03:55:16;;;;;;;14.97;10.00;;;;;;;;;;5034332;28;20207;-72
2022/04/29 03:57:46;;;;;;;14.37;10.33;;;;;;;;;;5030947;28;20225;-71
2022/04/29 04:00:15;;;;;;;13.43;9.43;;;;;;;;;;5034469;28;20253;-71
2022/04/29 04:02:44;;;;;;;12.43;9.77;;;;;;;;;;5029482;28;20267;-73
2022/04/29 04:05:13;;;;;;;13.57;10.17;;;;;;;;;;5034496;28;20296;-72
2022/04/29 04:07:42;;;;;;;14.50;10.10;;;;;;;;;;5031035;28;20237;-73
2022/04/29 04:10:10;;;;;;;14.03;9.47;;;;;;;;;;5019589;28;20265;-72
2022/04/29 04:12:39;;;;;;;13.90;9.67;;;;;;;;;;5034246;28;20215;-70
2022/04/29 04:15:10;;;;;;;12.17;9.33;;;;;;;;;;5033055;28;20268;-73
2022/04/29 04:17:38;;;;;;;14.53;10.00;;;;;;;;;;5033272;28;20631;-72
2022/04/29 04:20:08;;;;;;;14.23;10.00;;;;;;;;;;5020630;28;20209;-71
2022/04/29 04:22:36;;;;;;;15.80;9.53;;;;;;;;;;5030795;28;20205;-71
2022/04/29 04:25:05;;;;;;;15.10;9.90;;;;;;;;;;5033287;28;20658;-72
2022/04/29 04:27:33;;;;;;;17.13;9.97;;;;;;;;;;5034115;28;20232;-72
2022/04/29 04:30:02;;;;;;;12.90;9.70;;;;;;;;;;5033217;28;20226;-72
2022/04/29 04:32:34;;;;;;;15.77;10.80;;;;;;;;;;5033153;28;20229;-71
2022/04/29 04:35:02;;;;;;;12.90;9.30;;;;;;;;;;5032792;28;20258;-71
2022/04/29 04:37:31;;;;;;;16.70;10.67;;;;;;;;;;5032975;28;20272;-72
2022/04/29 04:40:00;;;;;;;15.73;10.80;;;;;;;;;;5030130;28;20208;-74
2022/04/29 04:42:28;;;;;;;15.17;9.70;;;;;;;;;;5031343;28;20280;-72
2022/04/29 04:44:57;;;;;;;16.93;11.10;;;;;;;;;;5032872;28;20680;-71
2022/04/29 04:47:26;;;;;;;17.70;10.13;;;;;;;;;;5031929;28;20768;-71
2022/04/29 04:49:56;;;;;;;16.83;10.70;;;;;;;;;;5030831;28;20228;-72
2022/04/29 04:52:24;;;;;;;16.93;12.20;;;;;;;;;;5032566;28;20233;-70
2022/04/29 04:54:53;;;;;;;16.67;10.87;;;;;;;;;;5030543;28;20208;-70
2022/04/29 04:57:21;;;;;;;15.23;10.60;;;;;;;;;;5031180;28;20230;-70
2022/04/29 04:59:49;;;;;;;18.50;11.30;;;;;;;;;;5032534;28;20265;-72
2022/04/29 05:02:18;;;;;;;15.37;10.23;;;;;;;;;;5031860;28;20204;-72
2022/04/29 05:04:46;;;;;;;14.73;10.27;;;;;;;;;;5024667;28;20213;-72
2022/04/29 05:07:16;;;;;;;17.13;11.47;;;;;;;;;;5034472;28;20230;-73
2022/04/29 05:09:44;;;;;;;16.90;10.77;;;;;;;;;;5026868;28;20319;-72
2022/04/29 05:12:14;;;;;;;17.13;10.63;;;;;;;;;;5031371;28;20300;-72
2022/04/29 05:14:42;;;;;;;13.50;10.63;;;;;;;;;;5034393;28;20568;-73
2022/04/29 05:17:11;;;;;;;20.27;11.73;;;;;;;;;;5029953;28;20227;-72
2022/04/29 05:19:39;;;;;;;16.70;12.20;;;;;;;;;;5032769;28;20218;-72
2022/04/29 05:22:08;;;;;;;21.53;12.50;;;;;;;;;;5022631;28;20292;-72
2022/04/29 05:24:38;;;;;;;17.57;12.43;;;;;;;;;;5031017;28;20206;-72
2022/04/29 05:27:07;;;;;;;22.70;13.50;;;;;;;;;;5031729;28;20279;-73
2022/04/29 05:29:36;;;;;;;23.27;11.87;;;;;;;;;;5034136;28;20222;-72
2022/04/29 05:32:05;;;;;;;23.03;13.63;;;;;;;;;;5033510;28;20230;-72
2022/04/29 05:34:34;;;;;;;21.77;12.97;;;;;;;;;;5027454;28;20214;-73
2022/04/29 05:37:03;;;;;;;21.47;13.97;;;;;;;;;;5032502;28;20706;-72
2022/04/29 05:42:21;;;;;;;21.67;12.90;;;;;;;;;;5026508;28;20554;-72
2022/04/29 05:44:49;;;;;;;24.30;13.37;;;;;;;;;;5032637;28;20261;-73
2022/04/29 05:47:18;;;;;;;18.57;13.70;;;;;;;;;;5034739;28;20225;-72
2022/04/29 05:49:46;;;;;;;22.50;13.37;;;;;;;;;;5033407;28;20216;-72
2022/04/29 05:52:15;;;;;;;22.67;13.87;;;;;;;;;;5032911;28;20266;-72
2022/04/29 05:54:43;;;;;;;24.90;13.80;;;;;;;;;;5034712;28;20212;-71
2022/04/29 05:57:12;;;;;;;23.17;14.20;;;;;;;;;;5034906;28;20282;-72
2022/04/29 05:59:41;;;;;;;24.30;15.63;;;;;;;;;;5034794;28;20203;-73
2022/04/29 06:02:11;;;;;;;26.00;14.47;;;;;;;;;;5029994;28;20259;-71
2022/04/29 06:04:39;;;;;;;26.70;15.57;;;;;;;;;;5034547;28;20248;-73
2022/04/29 06:07:08;;;;;;;19.70;13.67;;;;;;;;;;5034702;28;20272;-72
2022/04/29 06:09:36;;;;;;;22.93;13.37;;;;;;;;;;5034613;28;20609;-73
2022/04/29 06:12:05;;;;;;;22.23;13.27;;;;;;;;;;5020983;28;20235;-73
2022/04/29 06:14:36;;;;;;;18.10;13.23;;;;;;;;;;5016217;28;20208;-72
2022/04/29 06:17:06;;;;;;;21.30;13.43;;;;;;;;;;5016258;28;20632;-72
2022/04/29 06:19:34;;;;;;;21.60;12.93;;;;;;;;;;5036214;28;20214;-72
2022/04/29 06:22:04;;;;;;;19.10;13.20;;;;;;;;;;5045809;28;20231;-72
2022/04/29 06:24:33;;;;;;;20.00;12.60;;;;;;;;;;5034213;28;20207;-72
2022/04/29 06:27:21;;;;;;;24.60;13.30;;;;;;;;;;5034039;28;20259;-72
2022/04/29 06:29:49;;;;;;;21.13;12.80;;;;;;;;;;5033504;28;20572;-72
2022/04/29 06:32:19;;;;;;;15.83;12.13;;;;;;;;;;5034199;28;20220;-72
2022/04/29 06:34:49;;;;;;;16.23;12.00;;;;;;;;;;5032837;28;20208;-72
2022/04/29 06:37:20;;;;;;;19.67;12.87;;;;;;;;;;5034414;28;20630;-72
2022/04/29 06:39:52;;;;;;;20.53;12.93;;;;;;;;;;5032707;28;20200;-71
2022/04/29 06:42:20;;;;;;;16.67;12.87;;;;;;;;;;5034201;28;20721;-73
2022/04/29 06:44:49;;;;;;;19.80;12.67;;;;;;;;;;5033522;28;20211;-72
2022/04/29 06:47:18;;;;;;;19.77;12.80;;;;;;;;;;5033845;28;20667;-72
2022/04/29 06:49:47;;;;;;;19.87;12.93;;;;;;;;;;5032982;28;20253;-71
2022/04/29 06:52:16;;;;;;;20.60;13.47;;;;;;;;;;5032766;28;20261;-72
2022/04/29 06:54:44;;;;;;;22.80;13.80;;;;;;;;;;5033724;28;20263;-72
2022/04/29 06:57:13;;;;;;;22.43;14.00;;;;;;;;;;5033805;28;20266;-73
2022/04/29 06:59:41;;;;;;;21.23;13.63;;;;;;;;;;5033029;28;20209;-72
2022/04/29 07:02:10;;;;;;;18.50;13.37;;;;;;;;;;5033141;28;20222;-71
2022/04/29 07:04:39;;;;;;;23.67;12.90;;;;;;;;;;5033288;28;20202;-72
2022/04/29 07:07:11;;;;;;;24.10;13.83;;;;;;;;;;5033442;28;20224;-73
2022/04/29 07:09:40;;;;;;;21.80;13.33;;;;;;;;;;5033427;28;20711;-73
2022/04/29 07:12:26;;;;;;;18.30;13.03;;;;;;;;;;5033239;28;20258;-73
2022/04/29 07:14:55;;;;;;;18.87;12.57;;;;;;;;;;5033269;28;20199;-73
2022/04/29 07:17:23;;;;;;;20.67;12.80;;;;;;;;;;5032763;28;20559;-72
2022/04/29 07:19:52;;;;;;;17.83;12.97;;;;;;;;;;5024598;28;20603;-72
2022/04/29 07:22:29;;;;;;;19.07;12.03;;;;;;;;;;5032858;28;20431;-72
2022/04/29 07:24:58;;;;;;;20.47;12.90;;;;;;;;;;5033324;28;20223;-71
2022/04/29 07:27:28;;;;;;;20.73;13.73;;;;;;;;;;5032826;28;20718;-71
2022/04/29 07:29:56;;;;;;;20.13;13.63;;;;;;;;;;5021557;28;20215;-72
2022/04/29 07:32:25;;;;;;;19.50;12.87;;;;;;;;;;5027443;28;20277;-72
2022/04/29 07:43:14;;;;;;;21.23;13.03;;;;;;;;;;5029163;28;20188;-73
2022/04/29 07:45:43;;;;;;;17.07;13.13;;;;;;;;;;5033168;28;20733;-72
2022/04/29 07:48:11;;;;;;;20.93;12.67;;;;;;;;;;5032277;28;20227;-73
2022/04/29 07:50:40;;;;;;;17.93;11.70;;;;;;;;;;5032979;28;20203;-73
2022/04/29 07:53:10;;;;;;;19.80;13.33;;;;;;;;;;5032130;28;20250;-71
2022/04/29 07:55:39;;;;;;;14.67;11.60;;;;;;;;;;5033167;28;20203;-72
2022/04/29 07:58:09;;;;;;;15.90;11.60;;;;;;;;;;5028747;28;20227;-72
2022/04/29 08:00:38;;;;;;;16.37;10.50;;;;;;;;;;5025911;28;20262;-72
2022/04/29 08:03:27;;;;;;;17.93;11.57;;;;;;;;;;5023742;28;20229;-71
2022/04/29 08:05:56;;;;;;;16.27;10.80;;;;;;;;;;5012499;28;20212;-72
2022/04/29 08:08:26;;;;;;;15.97;11.10;;;;;;;;;;5019924;28;20265;-72
2022/04/29 08:10:54;;;;;;;16.70;10.90;;;;;;;;;;5029183;28;20231;-73
2022/04/29 08:13:24;;;;;;;13.83;10.57;;;;;;;;;;5029762;28;20630;-73
2022/04/29 08:15:52;;;;;;;15.97;11.83;;;;;;;;;;5032579;28;20294;-72
2022/04/29 08:18:21;;;;;;;16.30;10.80;;;;;;;;;;5031318;28;20238;-73
2022/04/29 08:20:49;;;;;;;15.73;11.07;;;;;;;;;;5032575;28;20200;-73
2022/04/29 08:23:18;;;;;;;14.40;10.53;;;;;;;;;;5032735;28;20562;-73
2022/04/29 08:25:48;;;;;;;15.77;10.63;;;;;;;;;;5032919;28;20207;-73
2022/04/29 08:28:16;;;;;;;14.97;11.10;;;;;;;;;;5033158;28;20219;-74
2022/04/29 08:30:45;;;;;;;19.27;11.80;;;;;;;;;;5032568;28;20212;-74
2022/04/29 08:33:21;;;;;;;17.37;11.90;;;;;;;;;;5031427;28;20219;-74
2022/04/29 08:35:53;;;;;;;16.47;10.17;;;;;;;;;;5032589;28;20250;-72
2022/04/29 08:38:22;;;;;;;15.90;10.17;;;;;;;;;;5032547;28;20220;-74
2022/04/29 08:40:51;;;;;;;12.93;10.17;;;;;;;;;;5035157;28;20204;-73
2022/04/29 08:43:21;;;;;;;13.93;10.43;;;;;;;;;;5021088;28;20196;-74
2022/04/29 08:45:50;;;;;;;14.93;9.77;;;;;;;;;;5016464;28;20296;-73
2022/04/29 08:48:19;;;;;;;15.73;10.57;;;;;;;;;;5023735;28;20227;-74
2022/04/29 08:50:48;;;;;;;14.00;9.63;;;;;;;;;;5036485;28;20295;-73
2022/04/29 08:53:17;;;;;;;16.17;9.90;;;;;;;;;;5034926;28;20285;-73
2022/04/29 08:58:43;;;;;;;12.57;9.30;;;;;;;;;;5000782;28;20625;-73
2022/04/29 09:01:13;;;;;;;13.10;8.73;;;;;;;;;;5036157;28;20269;-73
2022/04/29 09:03:43;;;;;;;12.07;8.60;;;;;;;;;;5035645;28;20235;-74
2022/04/29 09:06:12;;;;;;;10.73;8.03;;;;;;;;;;5036216;28;20204;-72
2022/04/29 09:08:47;;;;;;;12.27;8.37;;;;;;;;;;5036135;28;20289;-73
2022/04/29 09:11:22;;;;;;;13.10;8.03;;;;;;;;;;5035912;28;20254;-75
2022/04/29 09:13:52;;;;;;;11.50;8.10;;;;;;;;;;5034828;28;20682;-72
2022/04/29 09:16:21;;;;;;;16.50;8.47;;;;;;;;;;5035830;28;20199;-74
2022/04/29 09:18:53;;;;;;;14.90;8.20;;;;;;;;;;5035646;28;20232;-73
2022/04/29 09:21:24;;;;;;;10.17;7.90;;;;;;;;;;5036043;28;20189;-72
2022/04/29 09:23:54;;;;;;;13.13;8.10;;;;;;;;;;5032110;28;20200;-75
2022/04/29 09:26:24;;;;;;;12.83;8.73;;;;;;;;;;5035206;28;20298;-74
2022/04/29 09:28:55;;;;;;;12.90;8.40;;;;;;;;;;5035388;28;20231;-74
2022/04/29 09:31:23;;;;;;;14.93;8.40;;;;;;;;;;5035604;28;20188;-73
2022/04/29 09:34:12;;;;;;;11.17;8.40;;;;;;;;;;5034477;28;20329;-73
2022/04/29 09:36:40;;;;;;;11.73;8.47;;;;;;;;;;5035174;28;20208;-73
2022/04/29 09:41:56;;;;;;;12.73;8.20;;;;;;;;;;5035265;28;20225;-73
2022/04/29 09:44:29;;;;;;;12.80;8.57;;;;;;;;;;5028148;28;20226;-74
2022/04/29 09:46:57;;;;;;;12.17;8.60;;;;;;;;;;5015287;28;20232;-74
2022/04/29 09:49:29;;;;;;;13.53;8.57;;;;;;;;;;5031410;28;20212;-73
2022/04/29 09:51:57;;;;;;;11.90;8.17;;;;;;;;;;5034611;28;20218;-72
2022/04/29 09:54:26;;;;;;;13.50;8.63;;;;;;;;;;5034638;28;20683;-72
2022/04/29 09:57:05;;;;;;;15.73;8.57;;;;;;;;;;5035105;28;20223;-74
2022/04/29 09:59:36;;;;;;;14.77;9.23;;;;;;;;;;5035088;28;20282;-73
2022/04/29 10:02:05;;;;;;;16.03;8.47;;;;;;;;;;5034128;28;20207;-73
2022/04/29 10:04:37;;;;;;;12.33;7.77;;;;;;;;;;5034739;28;20231;-72
2022/04/29 10:07:07;;;;;;;10.70;7.53;;;;;;;;;;5034736;28;20726;-73
2022/04/29 10:09:36;;;;;;;10.17;7.80;;;;;;;;;;5033514;28;20208;-73
2022/04/29 10:12:05;;;;;;;11.03;7.40;;;;;;;;;;5034831;28;20215;-72
2022/04/29 10:14:35;;;;;;;11.73;8.03;;;;;;;;;;5034081;28;20223;-73
2022/04/29 10:22:42;;;;;;;12.77;7.83;;;;;;;;;;5014474;28;20216;-74
2022/04/29 10:25:12;;;;;;;15.90;8.00;;;;;;;;;;5028951;28;20204;-73
2022/04/29 10:27:40;;;;;;;12.73;7.70;;;;;;;;;;5033038;28;20634;-73
2022/04/29 10:30:10;;;;;;;13.70;7.70;;;;;;;;;;5032727;28;20203;-72
2022/04/29 10:32:57;;;;;;;12.77;7.15;;;;;;;;;;5034070;28;20204;-74
2022/04/29 10:35:57;;;;;;;11.18;7.47;;;;;;;;;;5028969;28;20675;-73
2022/04/29 10:38:28;;;;;;;12.85;8.68;;;;;;;;;;5015568;28;20229;-72
2022/04/29 10:41:16;;;;;;;11.95;7.70;;;;;;;;;;5031169;28;20196;-73
2022/04/29 10:43:49;;;;;;;14.85;8.20;;;;;;;;;;5016780;28;20199;-74
2022/04/29 10:46:20;;;;;;;11.10;7.57;;;;;;;;;;5032067;28;20203;-74
2022/04/29 10:48:49;;;;;;;9.93;7.10;;;;;;;;;;5027177;28;20630;-74
2022/04/29 10:51:18;;;;;;;8.68;6.30;;;;;;;;;;5019757;28;20283;-74
2022/04/29 10:53:49;;;;;;;10.18;6.60;;;;;;;;;;5032889;28;20219;-74
2022/04/29 10:56:36;;;;;;;11.35;6.50;;;;;;;;;;5033106;28;20200;-72
2022/04/29 10:59:19;;;;;;;12.38;6.00;;;;;;;;;;5049787;28;20286;-73
2022/04/29 11:01:51;;;;;;;10.05;6.38;;;;;;;;;;5033133;28;20203;-73
2022/04/29 11:04:38;;;;;;;10.80;6.55;;;;;;;;;;5029162;28;20199;-73
2022/04/29 11:07:07;;;;;;;11.23;6.03;;;;;;;;;;5023690;28;20224;-73
2022/04/29 11:09:50;;;;;;;9.65;5.93;;;;;;;;;;5031988;28;20250;-73
2022/04/29 11:12:29;;;;;;;9.07;5.68;;;;;;;;;;5025032;28;20203;-73
2022/04/29 11:15:08;;;;;;;9.98;5.97;;;;;;;;;;5032749;28;20223;-73
2022/04/29 11:17:38;;;;;;;6.35;5.45;;;;;;;;;;5027032;28;20227;-73
2022/04/29 11:20:19;;;;;;;9.45;5.68;;;;;;;;;;5030208;28;20219;-73
2022/04/29 11:25:49;;;;;;;6.87;5.90;;;;;;;;;;5027497;28;20212;-73
2022/04/29 11:28:18;;;;;;;8.70;5.70;;;;;;;;;;5025139;28;20219;-74
2022/04/29 11:30:47;;;;;;;10.65;6.07;;;;;;;;;;5030790;28;20594;-72
2022/04/29 11:33:22;;;;;;;9.23;6.10;;;;;;;;;;5032638;28;20208;-74
2022/04/29 11:35:53;;;;;;;7.87;5.53;;;;;;;;;;5030089;28;20807;-71
2022/04/29 11:38:26;;;;;;;8.80;6.13;;;;;;;;;;5026154;28;20236;-71
2022/04/29 11:40:57;;;;;;;7.53;6.00;;;;;;;;;;5026531;28;20204;-72
2022/04/29 11:43:26;;;;;;;9.00;5.60;;;;;;;;;;5031577;28;20226;-71
2022/04/29 11:46:05;;;;;;;8.93;5.73;;;;;;;;;;5031103;28;20236;-71
2022/04/29 11:48:35;;;;;;;10.23;5.97;;;;;;;;;;5031519;28;20285;-71
2022/04/29 11:51:05;;;;;;;7.23;5.53;;;;;;;;;;5022404;28;20207;-71
2022/04/29 11:53:35;;;;;;;9.20;6.10;;;;;;;;;;5030005;28;20601;-71
2022/04/29 11:56:05;;;;;;;8.97;5.93;;;;;;;;;;5029503;28;20649;-73
2022/04/29 11:58:37;;;;;;;7.47;5.37;;;;;;;;;;5032969;28;20277;-74
2022/04/29 12:01:06;;;;;;;6.63;5.03;;;;;;;;;;5032924;28;20196;-72
2022/04/29 12:03:35;;;;;;;6.90;5.17;;;;;;;;;;5023418;28;20204;-73
2022/04/29 12:06:04;;;;;;;9.27;5.27;;;;;;;;;;5024726;28;20230;-73
2022/04/29 12:08:44;;;;;;;7.67;5.57;;;;;;;;;;5031013;28;20653;-73
2022/04/29 12:11:23;;;;;;;7.87;5.00;;;;;;;;;;5030807;28;20215;-74
2022/04/29 12:13:51;;;;;;;8.93;5.17;;;;;;;;;;5029617;28;20200;-72
2022/04/29 12:16:20;;;;;;;6.73;5.47;;;;;;;;;;5033526;28;20223;-73
2022/04/29 12:18:49;;;;;;;12.00;5.10;;;;;;;;;;5032081;28;20231;-72
2022/04/29 12:21:24;;;;;;;8.97;4.73;;;;;;;;;;5034292;28;20656;-73
2022/04/29 12:23:53;;;;;;;8.00;5.20;;;;;;;;;;5035447;28;20207;-72
2022/04/29 12:26:23;;;;;;;6.37;4.67;;;;;;;;;;5034990;28;20239;-72
2022/04/29 12:28:56;;;;;;;8.40;5.30;;;;;;;;;;5035510;28;20231;-73
2022/04/29 12:37:00;;;;;;;10.50;5.17;;;;;;;;;;5035630;28;20216;-73
2022/04/29 12:39:35;;;;;;;8.07;5.20;;;;;;;;;;5026810;28;20291;-73
2022/04/29 12:42:06;;;;;;;8.37;4.70;;;;;;;;;;5032871;28;20227;-73
2022/04/29 12:47:34;;;;;;;7.80;5.27;;;;;;;;;;5033882;28;20738;-72
2022/04/29 12:50:20;;;;;;;8.47;5.13;;;;;;;;;;5032743;28;20204;-73
2022/04/29 12:52:57;;;;;;;9.33;5.10;;;;;;;;;;5029612;28;20290;-75
2022/04/29 12:55:25;;;;;;;7.10;5.07;;;;;;;;;;5029576;28;20597;-72
2022/04/29 12:58:04;;;;;;;7.60;4.37;;;;;;;;;;5033257;28;20223;-73
2022/04/29 13:00:37;;;;;;;6.50;4.40;;;;;;;;;;5035480;28;20231;-75
2022/04/29 13:03:07;;;;;;;9.53;5.03;;;;;;;;;;5031824;28;20302;-71
2022/04/29 13:05:37;;;;;;;7.67;5.17;;;;;;;;;;5029319;28;20810;-73
2022/04/29 13:08:09;;;;;;;7.27;4.87;;;;;;;;;;5034197;28;20243;-70
2022/04/29 13:10:49;;;;;;;9.63;5.00;;;;;;;;;;5031270;28;20299;-73
2022/04/29 13:13:20;;;;;;;8.87;4.70;;;;;;;;;;5023198;28;20208;-72
2022/04/29 13:15:49;;;;;;;13.73;4.90;;;;;;;;;;5024283;28;20240;-72
2022/04/29 13:18:18;;;;;;;9.07;4.53;;;;;;;;;;5033860;28;20219;-72
2022/04/29 13:20:47;;;;;;;12.00;4.73;;;;;;;;;;5025973;28;20211;-71
2022/04/29 13:23:16;;;;;;;9.33;4.33;;;;;;;;;;5027146;28;20304;-73
2022/04/29 13:25:45;;;;;;;7.20;4.67;;;;;;;;;;5027545;28;20203;-72
2022/04/29 13:28:13;;;;;;;5.33;4.30;;;;;;;;;;5028634;28;20230;-73
2022/04/29 13:30:43;;;;;;;8.40;4.77;;;;;;;;;;5031165;28;20261;-72
2022/04/29 13:33:12;;;;;;;6.00;4.90;;;;;;;;;;5029432;28;20204;-72
2022/04/29 13:35:40;;;;;;;7.53;4.57;;;;;;;;;;5027630;28;20667;-72
2022/04/29 13:38:09;;;;;;;7.10;5.07;;;;;;;;;;5026951;28;20301;-71
2022/04/29 13:40:38;;;;;;;6.97;4.50;;;;;;;;;;5027855;28;20664;-72
2022/04/29 13:43:07;;;;;;;7.57;4.67;;;;;;;;;;5027271;28;20695;-73
2022/04/29 13:45:51;;;;;;;16.47;5.17;;;;;;;;;;5028962;28;20593;-72
2022/04/29 13:48:24;;;;;;;7.73;4.87;;;;;;;;;;5027071;28;20228;-71
2022/04/29 13:50:53;;;;;;;9.07;5.07;;;;;;;;;;5026832;28;20295;-73
2022/04/29 13:53:22;;;;;;;6.40;4.40;;;;;;;;;;5030380;28;20204;-73
2022/04/29 13:55:51;;;;;;;6.67;4.43;;;;;;;;;;5028098;28;20326;-72
2022/04/29 13:58:21;;;;;;;6.57;4.90;;;;;;;;;;5030084;28;20219;-71
2022/04/29 14:00:51;;;;;;;7.33;4.40;;;;;;;;;;5031941;28;20200;-71
2022/04/29 14:03:20;;;;;;;7.33;4.57;;;;;;;;;;5030407;28;20648;-73
2022/04/29 14:05:49;;;;;;;6.10;4.30;;;;;;;;;;5023414;28;20200;-72
2022/04/29 14:08:18;;;;;;;6.97;4.30;;;;;;;;;;5024175;28;20231;-73
2022/04/29 14:10:49;;;;;;;6.90;4.40;;;;;;;;;;5026285;28;20234;-73
2022/04/29 14:13:20;;;;;;;7.47;4.50;;;;;;;;;;5027149;28;20587;-72
2022/04/29 14:15:50;;;;;;;7.00;4.20;;;;;;;;;;5023287;28;20218;-70
2022/04/29 14:18:25;;;;;;;6.43;4.77;;;;;;;;;;5019015;28;20687;-72
2022/04/29 14:21:02;;;;;;;7.50;4.40;;;;;;;;;;5026417;28;20298;-72
2022/04/29 14:23:38;;;;;;;5.00;4.00;;;;;;;;;;5028578;28;20214;-73
2022/04/29 14:26:17;;;;;;;4.93;4.40;;;;;;;;;;5026951;28;20201;-73
2022/04/29 14:28:49;;;;;;;8.07;4.37;;;;;;;;;;5029193;28;20233;-73
2022/04/29 14:31:19;;;;;;;5.77;4.87;;;;;;;;;;5027150;28;20210;-74
2022/04/29 14:33:50;;;;;;;7.20;4.37;;;;;;;;;;5026914;28;20212;-73
2022/04/29 14:36:19;;;;;;;7.57;4.50;;;;;;;;;;5025472;28;20303;-73
2022/04/29 14:38:48;;;;;;;6.00;4.20;;;;;;;;;;5027913;28;20230;-74
2022/04/29 14:41:17;;;;;;;6.90;4.40;;;;;;;;;;5037051;28;20299;-73
2022/04/29 14:43:45;;;;;;;9.33;4.50;;;;;;;;;;5030186;28;20206;-73
2022/04/29 14:46:14;;;;;;;8.77;4.07;;;;;;;;;;5027842;28;20562;-74
2022/04/29 14:48:51;;;;;;;6.23;3.70;;;;;;;;;;5025589;28;20883;-73
2022/04/29 14:51:36;;;;;;;18.60;5.57;;;;;;;;;;5026806;28;20239;-72
2022/04/29 14:54:05;;;;;;;5.50;4.20;;;;;;;;;;5027789;28;20203;-73
2022/04/29 14:56:33;;;;;;;6.60;3.97;;;;;;;;;;5026820;28;20258;-73
2022/04/29 14:59:03;;;;;;;8.63;4.67;;;;;;;;;;5024930;28;20208;-72
2022/04/29 15:01:32;;;;;;;7.10;4.10;;;;;;;;;;5028152;28;20368;-72
2022/04/29 15:04:03;;;;;;;5.30;3.90;;;;;;;;;;5025631;28;20208;-72
2022/04/29 15:06:33;;;;;;;6.40;4.23;;;;;;;;;;5030197;28;20196;-74
2022/04/29 15:17:32;;;;;;;6.60;4.13;;;;;;;;;;5022657;28;20238;-72
2022/04/29 15:20:02;;;;;;;6.00;4.47;;;;;;;;;;5025935;28;20675;-72
2022/04/29 15:22:32;;;;;;;6.53;4.30;;;;;;;;;;5022106;28;20203;-74
2022/04/29 15:25:01;;;;;;;8.47;4.10;;;;;;;;;;5026960;28;20618;-75
2022/04/29 15:27:29;;;;;;;5.23;4.73;;;;;;;;;;5026756;28;20737;-73
2022/04/29 15:29:58;;;;;;;6.60;4.57;;;;;;;;;;5025387;28;20204;-72
2022/04/29 15:32:26;;;;;;;8.47;4.73;;;;;;;;;;5022613;28;20200;-75